createdAt,value
2023-01-29T00:00:15.541Z,99978.95
2023-01-29T00:03:04.202Z,99977.55
2023-01-29T00:05:32.614Z,99973.87
2023-01-29T00:08:02.159Z,99979.96
2023-01-29T00:10:30.514Z,99986.25
2023-01-29T00:12:59.418Z,99989.57
2023-01-29T00:15:27.699Z,99989.26
2023-01-29T00:17:56.035Z,99989.97
2023-01-29T00:20:24.399Z,99989.32
2023-01-29T00:22:52.760Z,99989.71
2023-01-29T00:25:21.056Z,99991.30
2023-01-29T00:27:49.506Z,99989.40
2023-01-29T00:30:19.895Z,99991.20
2023-01-29T00:32:48.537Z,99988.27
2023-01-29T00:35:17.345Z,99988.81
2023-01-29T00:37:45.758Z,99992.45
2023-01-29T00:40:14.264Z,99991.59
2023-01-29T00:43:03.962Z,99994.52
2023-01-29T00:45:36.748Z,99996.05
2023-01-29T00:48:05.462Z,99995.16
2023-01-29T00:50:33.741Z,99994.66
2023-01-29T00:53:02.105Z,99994.81
2023-01-29T00:55:31.204Z,99999.67
2023-01-29T00:57:59.527Z,100000.70
2023-01-29T01:00:27.828Z,99999.11
2023-01-29T01:03:08.407Z,99998.76
2023-01-29T01:05:39.308Z,100006.63
2023-01-29T01:08:27.892Z,100004.17
2023-01-29T01:11:04.567Z,100001.23
2023-01-29T01:13:34.625Z,99997.94
2023-01-29T01:16:12.720Z,100006.52
2023-01-29T01:18:41.858Z,100010.02
2023-01-29T01:21:10.363Z,100006.05
2023-01-29T01:23:38.658Z,100008.50
2023-01-29T01:26:11.227Z,100008.33
2023-01-29T01:28:39.665Z,100007.47
2023-01-29T01:31:13.418Z,100005.60
2023-01-29T01:33:41.791Z,100002.85
2023-01-29T01:36:10.161Z,100006.34
2023-01-29T01:38:44.616Z,100005.46
2023-01-29T01:41:16.147Z,100003.90
2023-01-29T01:43:55.722Z,100006.33
2023-01-29T01:46:37.970Z,100011.91
2023-01-29T01:49:18.964Z,100015.20
2023-01-29T01:51:52.789Z,100009.95
2023-01-29T01:54:27.078Z,100006.79
2023-01-29T01:57:11.731Z,100008.02
2023-01-29T01:59:40.803Z,100019.73
2023-01-29T02:02:28.416Z,100019.25
2023-01-29T02:05:16.666Z,100008.82
2023-01-29T02:08:06.914Z,100002.05
2023-01-29T02:10:48.988Z,100004.36
2023-01-29T02:13:18.809Z,100005.44
2023-01-29T02:15:48.763Z,100008.77
2023-01-29T02:18:19.595Z,100005.64
2023-01-29T02:21:15.229Z,100000.23
2023-01-29T02:24:08.714Z,99989.28
2023-01-29T02:27:06.060Z,99985.61
2023-01-29T02:29:39.137Z,99977.39
2023-01-29T02:32:21.143Z,99973.23
2023-01-29T02:35:26.165Z,99969.76
2023-01-29T02:38:19.419Z,99968.54
2023-01-29T02:41:16.627Z,99971.83
2023-01-29T02:43:54.858Z,99965.54
2023-01-29T02:46:39.247Z,99960.35
2023-01-29T02:49:26.262Z,99965.29
2023-01-29T02:52:07.554Z,99967.73
2023-01-29T02:54:48.031Z,99968.48
2023-01-29T02:57:38.266Z,99967.79
2023-01-29T03:00:29.979Z,99971.81
2023-01-29T03:03:14.751Z,99977.95
2023-01-29T03:06:18.428Z,99977.25
2023-01-29T03:08:56.072Z,99970.11
2023-01-29T03:11:27.133Z,99969.81
2023-01-29T03:14:03.464Z,99965.98
2023-01-29T03:16:45.075Z,99973.30
2023-01-29T03:19:45.357Z,99979.26
2023-01-29T03:22:23.332Z,99981.06
2023-01-29T03:25:14.466Z,99987.02
2023-01-29T03:28:10.207Z,99988.62
2023-01-29T03:31:07.730Z,99987.59
2023-01-29T03:34:05.711Z,99986.19
2023-01-29T03:37:09.364Z,99987.23
2023-01-29T03:39:37.750Z,99982.55
2023-01-29T03:42:12.155Z,99986.92
2023-01-29T03:45:12.678Z,99987.83
2023-01-29T03:48:24.717Z,99991.48
2023-01-29T03:51:02.414Z,99986.09
2023-01-29T03:53:34.144Z,99992.56
2023-01-29T03:56:07.295Z,99996.23
2023-01-29T03:58:39.735Z,99997.09
2023-01-29T04:01:24.295Z,99991.16
2023-01-29T04:04:01.986Z,99987.66
2023-01-29T04:06:36.145Z,99981.38
2023-01-29T04:09:17.027Z,99981.20
2023-01-29T04:11:50.275Z,99978.77
2023-01-29T04:14:19.566Z,99974.26
2023-01-29T04:16:52.413Z,99974.05
2023-01-29T04:19:41.399Z,99974.92
2023-01-29T04:22:24.319Z,99966.90
2023-01-29T04:24:52.884Z,99958.90
2023-01-29T04:27:44.668Z,99960.14
2023-01-29T04:30:16.182Z,99955.93
2023-01-29T04:33:33.445Z,99956.96
2023-01-29T04:36:16.964Z,99961.15
2023-01-29T04:38:50.917Z,99959.11
2023-01-29T04:41:31.913Z,99962.24
2023-01-29T04:44:16.237Z,99956.88
2023-01-29T04:47:18.717Z,99960.21
2023-01-29T04:50:14.585Z,99957.59
2023-01-29T04:53:20.872Z,99952.52
2023-01-29T04:56:01.442Z,99940.45
2023-01-29T04:58:38.532Z,99930.84
2023-01-29T05:01:11.158Z,99925.23
2023-01-29T05:03:43.081Z,99918.98
2023-01-29T05:06:12.410Z,99916.52
2023-01-29T05:08:42.390Z,99921.40
2023-01-29T05:11:11.735Z,99919.66
2023-01-29T05:13:43.262Z,99923.53
2023-01-29T05:16:30.114Z,99920.04
2023-01-29T05:18:58.913Z,99918.84
2023-01-29T05:21:27.914Z,99917.45
2023-01-29T05:24:29.163Z,99910.99
2023-01-29T05:27:16.629Z,99914.30
2023-01-29T05:29:48.706Z,99914.45
2023-01-29T05:32:17.189Z,99915.18
2023-01-29T05:34:45.503Z,99912.08
2023-01-29T05:37:13.827Z,99914.36
2023-01-29T05:39:42.161Z,99919.08
2023-01-29T05:42:10.444Z,99922.41
2023-01-29T05:44:38.798Z,99931.83
2023-01-29T05:47:07.163Z,99929.75
2023-01-29T05:49:37.289Z,99927.83
2023-01-29T05:52:07.084Z,99932.71
2023-01-29T05:54:35.434Z,99935.67
2023-01-29T05:57:03.885Z,99937.64
2023-01-29T05:59:32.328Z,99941.84
2023-01-29T06:02:00.641Z,99942.73
2023-01-29T06:04:29.111Z,99945.71
2023-01-29T06:06:57.545Z,99946.25
2023-01-29T06:09:25.821Z,99952.39
2023-01-29T06:11:54.150Z,99957.98
2023-01-29T06:14:22.500Z,99961.82
2023-01-29T06:16:50.771Z,99966.02
2023-01-29T06:19:20.765Z,99971.08
2023-01-29T06:21:49.126Z,99970.09
2023-01-29T06:24:17.644Z,99973.59
2023-01-29T06:26:46.270Z,99973.41
2023-01-29T06:29:14.643Z,99977.59
2023-01-29T06:31:43.080Z,99982.13
2023-01-29T06:34:11.430Z,99983.70
2023-01-29T06:36:39.995Z,99984.09
2023-01-29T06:39:10.500Z,99984.83
2023-01-29T06:41:39.003Z,99985.54
2023-01-29T06:44:07.391Z,99987.64
2023-01-29T06:46:36.159Z,99985.91
2023-01-29T06:49:04.491Z,99990.80
2023-01-29T06:51:32.911Z,99994.88
2023-01-29T06:54:01.240Z,100001.73
2023-01-29T06:56:29.701Z,100006.48
2023-01-29T06:58:58.122Z,100007.89
2023-01-29T07:01:35.589Z,100003.55
2023-01-29T07:04:08.018Z,100004.92
2023-01-29T07:06:36.451Z,100004.05
2023-01-29T07:09:05.185Z,100003.52
2023-01-29T07:11:34.744Z,100005.78
2023-01-29T07:14:03.245Z,100003.30
2023-01-29T07:16:31.968Z,99999.42
2023-01-29T07:19:00.489Z,99997.67
2023-01-29T07:21:29.442Z,100001.21
2023-01-29T07:23:57.876Z,100005.60
2023-01-29T07:26:26.291Z,100007.89
2023-01-29T07:28:54.699Z,100003.02
2023-01-29T07:31:23.325Z,100000.39
2023-01-29T07:33:51.764Z,100000.41
2023-01-29T07:36:20.160Z,99999.34
2023-01-29T07:38:51.943Z,100004.22
2023-01-29T07:41:20.294Z,100008.77
2023-01-29T07:43:48.735Z,100013.18
2023-01-29T07:46:17.082Z,100013.91
2023-01-29T07:48:45.495Z,100013.27
2023-01-29T07:51:13.996Z,100012.29
2023-01-29T07:53:44.558Z,100017.19
2023-01-29T07:56:13.111Z,100025.17
2023-01-29T07:58:41.476Z,100026.91
2023-01-29T08:01:10.134Z,100030.90
2023-01-29T08:03:38.829Z,100038.77
2023-01-29T08:06:07.541Z,100050.82
2023-01-29T08:08:35.838Z,100058.50
2023-01-29T08:11:05.787Z,100065.30
2023-01-29T08:13:34.253Z,100063.12
2023-01-29T08:16:03.711Z,100068.39
2023-01-29T08:18:32.039Z,100070.83
2023-01-29T08:21:01.999Z,100071.52
2023-01-29T08:23:31.168Z,100074.47
2023-01-29T08:25:59.862Z,100078.67
2023-01-29T08:28:28.675Z,100080.77
2023-01-29T08:30:57.111Z,100087.01
2023-01-29T08:33:38.714Z,100089.27
2023-01-29T08:36:09.138Z,100092.92
2023-01-29T08:38:37.680Z,100091.69
2023-01-29T08:41:06.621Z,100098.09
2023-01-29T08:43:37.082Z,100103.44
2023-01-29T08:46:06.908Z,100110.36
2023-01-29T08:48:36.478Z,100111.52
2023-01-29T08:51:05.504Z,100112.16
2023-01-29T08:53:33.910Z,100105.60
2023-01-29T08:56:02.490Z,100099.02
2023-01-29T08:58:31.111Z,100086.48
2023-01-29T09:01:07.967Z,100081.77
2023-01-29T09:03:36.557Z,100068.96
2023-01-29T09:06:04.948Z,100069.42
2023-01-29T09:08:33.434Z,100069.97
2023-01-29T09:11:02.031Z,100074.95
2023-01-29T09:13:30.635Z,100074.29
2023-01-29T09:16:01.208Z,100069.61
2023-01-29T09:18:30.927Z,100070.52
2023-01-29T09:20:59.294Z,100064.68
2023-01-29T09:23:27.591Z,100052.04
2023-01-29T09:26:01.968Z,100047.80
2023-01-29T09:28:30.447Z,100043.36
2023-01-29T09:31:02.707Z,100043.98
2023-01-29T09:33:31.264Z,100045.94
2023-01-29T09:35:59.924Z,100046.95
2023-01-29T09:38:28.626Z,100050.95
2023-01-29T09:40:57.072Z,100045.23
2023-01-29T09:43:49.469Z,100038.74
2023-01-29T09:46:17.791Z,100036.46
2023-01-29T09:48:48.400Z,100030.22
2023-01-29T09:51:29.443Z,100024.74
2023-01-29T09:54:06.951Z,100020.15
2023-01-29T09:56:35.447Z,100021.36
2023-01-29T09:59:04.209Z,100016.01
2023-01-29T10:01:51.362Z,100015.55
2023-01-29T10:04:38.728Z,100006.29
2023-01-29T10:07:19.144Z,99999.89
2023-01-29T10:09:59.406Z,99997.42
2023-01-29T10:12:51.869Z,99995.08
2023-01-29T10:15:35.748Z,99986.48
2023-01-29T10:18:16.248Z,99979.91
2023-01-29T10:21:04.701Z,99974.59
2023-01-29T10:23:47.926Z,99972.10
2023-01-29T10:26:18.772Z,99973.02
2023-01-29T10:28:51.830Z,99977.20
2023-01-29T10:31:29.351Z,99979.77
2023-01-29T10:34:04.293Z,99978.65
2023-01-29T10:36:38.711Z,99967.99
2023-01-29T10:39:17.515Z,99964.80
2023-01-29T10:41:57.874Z,99957.08
2023-01-29T10:44:26.179Z,99946.85
2023-01-29T10:47:11.320Z,99945.71
2023-01-29T10:50:10.429Z,99937.54
2023-01-29T10:53:12.811Z,99930.95
2023-01-29T10:56:22.406Z,99922.48
2023-01-29T10:59:24.659Z,99913.57
2023-01-29T11:02:03.667Z,99907.73
2023-01-29T11:04:37.697Z,99900.58
2023-01-29T11:07:07.301Z,99896.34
2023-01-29T11:10:10.813Z,99886.17
2023-01-29T11:12:41.735Z,99883.47
2023-01-29T11:15:24.733Z,99872.66
2023-01-29T11:18:03.943Z,99862.98
2023-01-29T11:20:34.707Z,99849.85
2023-01-29T11:23:03.436Z,99856.33
2023-01-29T11:25:39.434Z,99854.80
2023-01-29T11:28:12.669Z,99851.77
2023-01-29T11:30:43.427Z,99850.47
2023-01-29T11:33:19.660Z,99842.30
2023-01-29T11:35:57.000Z,99828.83
2023-01-29T11:38:30.373Z,99832.23
2023-01-29T11:41:24.286Z,99824.45
2023-01-29T11:43:53.325Z,99822.69
2023-01-29T11:46:22.096Z,99816.29
2023-01-29T11:48:59.451Z,99810.59
2023-01-29T11:51:38.074Z,99822.61
2023-01-29T11:54:12.296Z,99817.42
2023-01-29T11:56:43.768Z,99810.96
2023-01-29T11:59:40.040Z,99815.63
2023-01-29T12:02:28.407Z,99802.23
2023-01-29T12:05:05.571Z,99800.46
2023-01-29T12:07:43.391Z,99796.73
2023-01-29T12:10:30.572Z,99794.94
2023-01-29T12:13:28.949Z,99793.19
2023-01-29T12:16:11.967Z,99795.38
2023-01-29T12:18:46.785Z,99786.79
2023-01-29T12:21:24.407Z,99783.77
2023-01-29T12:24:30.990Z,99778.45
2023-01-29T12:27:31.663Z,99775.34
2023-01-29T12:30:17.844Z,99773.38
2023-01-29T12:33:48.237Z,99773.23
2023-01-29T12:36:26.610Z,99771.48
2023-01-29T12:38:56.569Z,99767.38
2023-01-29T12:42:10.766Z,99768.10
2023-01-29T12:45:12.933Z,99773.64
2023-01-29T12:47:51.452Z,99773.02
2023-01-29T12:50:46.591Z,99776.63
2023-01-29T12:53:27.567Z,99777.44
2023-01-29T12:56:41.631Z,99773.91
2023-01-29T12:59:29.526Z,99769.34
2023-01-29T13:02:46.088Z,99771.92
2023-01-29T13:06:02.670Z,99771.75
2023-01-29T13:09:17.551Z,99779.44
2023-01-29T13:11:55.073Z,99777.27
2023-01-29T13:14:39.013Z,99781.66
2023-01-29T13:17:36.265Z,99780.45
2023-01-29T13:20:14.707Z,99772.73
2023-01-29T13:22:45.739Z,99775.63
2023-01-29T13:25:20.345Z,99778.53
2023-01-29T13:27:49.481Z,99775.14
2023-01-29T13:30:37.744Z,99774.84
2023-01-29T13:33:10.297Z,99765.56
2023-01-29T13:35:44.315Z,99758.24
2023-01-29T13:38:33.294Z,99758.10
2023-01-29T13:41:08.919Z,99757.88
2023-01-29T13:43:48.602Z,99758.33
2023-01-29T13:46:32.798Z,99761.00
2023-01-29T13:49:05.055Z,99752.24
2023-01-29T13:51:36.655Z,99755.91
2023-01-29T13:54:09.627Z,99756.98
2023-01-29T13:56:56.436Z,99756.11
2023-01-29T13:59:55.400Z,99759.09
2023-01-29T14:02:29.768Z,99755.38
2023-01-29T14:05:29.501Z,99754.10
2023-01-29T14:08:01.314Z,99759.05
2023-01-29T14:10:31.875Z,99757.93
2023-01-29T14:13:18.677Z,99762.23
2023-01-29T14:15:59.496Z,99761.06
2023-01-29T14:18:29.816Z,99757.10
2023-01-29T14:21:03.363Z,99757.31
2023-01-29T14:23:52.815Z,99758.27
2023-01-29T14:26:43.824Z,99759.95
2023-01-29T14:29:14.499Z,99762.23
2023-01-29T14:31:50.305Z,99762.09
2023-01-29T14:34:19.231Z,99760.55
2023-01-29T14:36:55.243Z,99760.59
2023-01-29T14:39:43.111Z,99760.00
2023-01-29T14:42:26.616Z,99755.95
2023-01-29T14:44:54.993Z,99746.18
2023-01-29T14:47:38.539Z,99743.36
2023-01-29T14:50:31.901Z,99743.41
2023-01-29T14:53:28.052Z,99741.66
2023-01-29T14:56:45.763Z,99740.95
2023-01-29T14:59:21.032Z,99734.89
2023-01-29T15:01:56.299Z,99734.27
2023-01-29T15:04:38.291Z,99733.51
2023-01-29T15:07:11.200Z,99735.41
2023-01-29T15:10:21.535Z,99731.26
2023-01-29T15:12:58.504Z,99728.94
2023-01-29T15:15:38.660Z,99723.82
2023-01-29T15:18:42.344Z,99718.88
2023-01-29T15:21:12.175Z,99714.11
2023-01-29T15:23:41.603Z,99710.55
2023-01-29T15:26:26.970Z,99713.80
2023-01-29T15:29:04.712Z,99722.58
2023-01-29T15:31:42.637Z,99726.66
2023-01-29T15:34:14.517Z,99718.60
2023-01-29T15:36:43.105Z,99714.67
2023-01-29T15:39:17.271Z,99708.85
2023-01-29T15:41:46.764Z,99703.39
2023-01-29T15:44:24.035Z,99696.85
2023-01-29T15:46:59.713Z,99693.82
2023-01-29T15:49:34.443Z,99699.82
2023-01-29T15:52:17.049Z,99703.52
2023-01-29T15:54:46.696Z,99695.58
2023-01-29T15:57:24.827Z,99691.98
2023-01-29T15:59:59.772Z,99690.66
2023-01-29T16:02:43.787Z,99688.27
2023-01-29T16:05:22.964Z,99689.38
2023-01-29T16:07:56.080Z,99697.27
2023-01-29T16:10:33.909Z,99701.85
2023-01-29T16:13:05.559Z,99696.17
2023-01-29T16:15:40.395Z,99697.10
2023-01-29T16:18:24.936Z,99689.83
2023-01-29T16:20:56.198Z,99686.89
2023-01-29T16:23:29.035Z,99693.03
2023-01-29T16:26:08.407Z,99698.45
2023-01-29T16:28:41.907Z,99697.27
2023-01-29T16:31:14.091Z,99701.10
2023-01-29T16:33:43.629Z,99711.20
2023-01-29T16:36:25.057Z,99711.36
2023-01-29T16:39:03.265Z,99708.91
2023-01-29T16:41:37.644Z,99712.23
2023-01-29T16:44:22.078Z,99711.86
2023-01-29T16:46:52.412Z,99710.80
2023-01-29T16:49:31.268Z,99712.53
2023-01-29T16:52:35.484Z,99716.54
2023-01-29T16:55:12.603Z,99723.64
2023-01-29T16:57:42.765Z,99720.66
2023-01-29T17:00:22.113Z,99718.73
2023-01-29T17:02:53.163Z,99717.13
2023-01-29T17:05:27.382Z,99714.85
2023-01-29T17:07:58.663Z,99709.09
2023-01-29T17:10:30.193Z,99706.48
2023-01-29T17:13:02.576Z,99704.57
2023-01-29T17:15:45.250Z,99703.17
2023-01-29T17:18:24.740Z,99696.39
2023-01-29T17:20:53.181Z,99694.84
2023-01-29T17:23:22.622Z,99691.55
2023-01-29T17:25:53.106Z,99688.95
2023-01-29T17:28:22.501Z,99686.17
2023-01-29T17:31:05.334Z,99681.65
2023-01-29T17:33:43.892Z,99676.98
2023-01-29T17:36:16.473Z,99666.90
2023-01-29T17:38:45.918Z,99664.66
2023-01-29T17:41:25.614Z,99665.54
2023-01-29T17:43:56.688Z,99663.65
2023-01-29T17:46:25.067Z,99660.19
2023-01-29T17:48:53.738Z,99656.56
2023-01-29T17:51:25.133Z,99651.72
2023-01-29T17:53:54.016Z,99646.84
2023-01-29T17:56:30.989Z,99640.05
2023-01-29T17:58:59.964Z,99641.98
2023-01-29T18:01:32.333Z,99639.54
2023-01-29T18:04:01.014Z,99643.89
2023-01-29T18:06:31.879Z,99642.13
2023-01-29T18:09:05.743Z,99639.33
2023-01-29T18:11:35.811Z,99630.95
2023-01-29T18:14:13.642Z,99627.10
2023-01-29T18:16:44.705Z,99628.98
2023-01-29T18:19:33.623Z,99628.80
2023-01-29T18:22:02.561Z,99629.96
2023-01-29T18:24:31.508Z,99626.11
2023-01-29T18:26:59.862Z,99621.02
2023-01-29T18:29:30.360Z,99628.48
2023-01-29T18:31:58.970Z,99630.89
2023-01-29T18:34:30.608Z,99626.85
2023-01-29T18:37:00.315Z,99632.73
2023-01-29T18:39:28.770Z,99635.33
2023-01-29T18:41:59.194Z,99632.14
2023-01-29T18:44:30.187Z,99627.41
2023-01-29T18:46:59.903Z,99629.65
2023-01-29T18:49:28.402Z,99625.61
2023-01-29T18:51:57.055Z,99624.73
2023-01-29T18:54:25.568Z,99622.78
2023-01-29T18:57:13.128Z,99626.44
2023-01-29T18:59:44.214Z,99626.57
2023-01-29T19:02:17.156Z,99626.04
2023-01-29T19:04:46.721Z,99619.02
2023-01-29T19:07:15.528Z,99612.56
2023-01-29T19:09:46.560Z,99612.38
2023-01-29T19:12:14.903Z,99612.50
2023-01-29T19:14:43.789Z,99615.10
2023-01-29T19:17:12.134Z,99619.78
2023-01-29T19:19:40.505Z,99613.13
2023-01-29T19:22:11.342Z,99606.16
2023-01-29T19:24:41.227Z,99599.71
2023-01-29T19:27:11.827Z,99595.02
2023-01-29T19:29:40.501Z,99589.45
2023-01-29T19:32:09.094Z,99584.06
2023-01-29T19:34:38.867Z,99585.11
2023-01-29T19:37:12.068Z,99580.26
2023-01-29T19:39:42.245Z,99576.60
2023-01-29T19:42:10.722Z,99571.87
2023-01-29T19:44:40.612Z,99561.57
2023-01-29T19:47:09.251Z,99556.33
2023-01-29T19:49:40.467Z,99556.10
2023-01-29T19:52:15.021Z,99559.57
2023-01-29T19:54:46.745Z,99564.22
2023-01-29T19:57:15.176Z,99562.77
2023-01-29T19:59:45.841Z,99561.36
2023-01-29T20:02:14.655Z,99560.44
2023-01-29T20:04:43.034Z,99550.48
2023-01-29T20:07:11.408Z,99546.25
2023-01-29T20:09:39.772Z,99542.58
2023-01-29T20:12:09.123Z,99547.77
2023-01-29T20:14:43.421Z,99549.49
2023-01-29T20:17:12.390Z,99549.83
2023-01-29T20:19:40.971Z,99542.87
2023-01-29T20:22:09.334Z,99546.17
2023-01-29T20:24:42.254Z,99542.19
2023-01-29T20:27:11.136Z,99542.19
2023-01-29T20:29:39.872Z,99539.41
2023-01-29T20:32:08.883Z,99539.22
2023-01-29T20:34:37.339Z,99539.73
2023-01-29T20:37:05.671Z,99532.77
2023-01-29T20:39:34.037Z,99532.04
2023-01-29T20:42:04.906Z,99529.21
2023-01-29T20:44:35.541Z,99523.61
2023-01-29T20:47:04.183Z,99523.41
2023-01-29T20:49:33.468Z,99526.15
2023-01-29T20:52:02.827Z,99524.23
2023-01-29T20:54:33.465Z,99518.78
2023-01-29T20:57:02.083Z,99520.85
2023-01-29T20:59:31.491Z,99520.29
2023-01-29T21:01:59.846Z,99519.58
2023-01-29T21:04:31.362Z,99517.81
2023-01-29T21:06:59.765Z,99518.83
2023-01-29T21:09:28.099Z,99516.52
2023-01-29T21:11:56.476Z,99518.60
2023-01-29T21:14:24.777Z,99520.13
2023-01-29T21:16:53.381Z,99516.45
2023-01-29T21:19:21.838Z,99514.34
2023-01-29T21:21:50.102Z,99514.33
2023-01-29T21:24:18.980Z,99514.82
2023-01-29T21:26:47.975Z,99513.23
2023-01-29T21:29:16.840Z,99510.77
2023-01-29T21:31:48.756Z,99507.62
2023-01-29T21:34:17.132Z,99502.54
2023-01-29T21:36:46.934Z,99490.67
2023-01-29T21:39:19.750Z,99491.89
2023-01-29T21:42:08.985Z,99486.84
2023-01-29T21:44:37.684Z,99486.84
2023-01-29T21:47:12.556Z,99483.89
2023-01-29T21:49:42.670Z,99480.23
2023-01-29T21:52:13.340Z,99478.16
2023-01-29T21:54:42.031Z,99470.34
2023-01-29T21:57:13.159Z,99468.95
2023-01-29T21:59:42.562Z,99464.63
2023-01-29T22:02:14.932Z,99460.50
2023-01-29T22:04:43.994Z,99461.60
2023-01-29T22:07:13.201Z,99455.75
2023-01-29T22:09:41.825Z,99451.81
2023-01-29T22:12:10.354Z,99449.61
2023-01-29T22:14:38.675Z,99443.80
2023-01-29T22:17:14.154Z,99439.66
2023-01-29T22:19:48.864Z,99433.81
2023-01-29T22:22:18.456Z,99425.70
2023-01-29T22:24:46.872Z,99423.17
2023-01-29T22:27:15.834Z,99421.84
2023-01-29T22:29:44.210Z,99418.09
2023-01-29T22:32:13.327Z,99416.39
2023-01-29T22:34:41.701Z,99416.81
2023-01-29T22:37:10.038Z,99413.39
2023-01-29T22:39:38.446Z,99412.40
2023-01-29T22:42:06.856Z,99411.80
2023-01-29T22:44:35.348Z,99405.27
2023-01-29T22:47:03.814Z,99400.69
2023-01-29T22:49:32.249Z,99394.50
2023-01-29T22:52:12.761Z,99391.30
2023-01-29T22:54:44.661Z,99384.65
2023-01-29T22:57:14.801Z,99382.67
2023-01-29T22:59:43.164Z,99375.46
2023-01-29T23:02:11.588Z,99374.71
2023-01-29T23:04:39.961Z,99373.58
2023-01-29T23:07:08.395Z,99373.50
2023-01-29T23:09:36.620Z,99367.85
2023-01-29T23:12:05.411Z,99363.31
2023-01-29T23:14:33.850Z,99357.55
2023-01-29T23:17:02.132Z,99358.71
2023-01-29T23:19:30.566Z,99360.40
2023-01-29T23:21:58.984Z,99354.31
2023-01-29T23:24:27.272Z,99347.70
2023-01-29T23:27:28.154Z,99342.95
2023-01-29T23:29:56.652Z,99333.02
2023-01-29T23:32:24.960Z,99333.10
2023-01-29T23:34:53.434Z,99333.04
2023-01-29T23:37:21.837Z,99332.66
2023-01-29T23:39:50.607Z,99330.91
2023-01-29T23:42:18.874Z,99331.73
2023-01-29T23:44:47.210Z,99330.98
2023-01-29T23:47:15.583Z,99329.39
2023-01-29T23:49:43.935Z,99325.84
2023-01-29T23:52:12.270Z,99318.08
2023-01-29T23:54:40.532Z,99311.02
2023-01-29T23:57:08.788Z,99304.84
2023-01-29T23:59:37.185Z,99304.90
